Time;durP1;ratioP1;P1;durP2;ratioP2;P2;SDS_P1;SDS_P2;PMS_P1;PMS_P2;Temp;Humidity;BMP_temperature;BMP_pressure;BME280_temperature;BME280_humidity;BME280_pressure;Samples;Min_cycle;Max_cycle;Signal;HPM_P1;HPM_P2
2023/04/18 00:01:37;;;;;;;;;17.50;12.75;;;;;11.76;71.76;99126.06;5018605;28;45580;-79
2023/04/18 00:04:03;;;;;;;;;15.00;14.50;;;;;11.82;71.44;99120.50;5019017;28;46571;-78
2023/04/18 00:06:30;;;;;;;;;65.33;53.00;;;;;11.85;71.36;99118.59;5013132;28;45518;-78
2023/04/18 00:08:55;;;;;;;;;17.00;15.00;;;;;11.88;71.54;99121.09;5005189;28;45432;-78
2023/04/18 00:11:21;;;;;;;;;10.25;10.25;;;;;11.92;71.43;99120.94;5015767;28;45384;-78
2023/04/18 00:13:47;;;;;;;;;16.25;12.75;;;;;11.92;71.36;99110.38;5019354;28;46341;-78
2023/04/18 00:16:12;;;;;;;;;11.50;9.50;;;;;11.92;71.48;99110.38;5016351;28;45439;-78
2023/04/18 00:18:38;;;;;;;;;10.75;10.75;;;;;11.93;71.38;99109.44;5005922;28;45536;-78
2023/04/18 00:21:07;;;;;;;;;16.50;12.50;;;;;11.92;71.30;99110.38;5009756;28;45467;-78
2023/04/18 00:23:34;;;;;;;;;15.00;12.25;;;;;11.90;71.37;99110.44;5016448;28;45712;-78
2023/04/18 00:26:00;;;;;;;;;16.00;14.25;;;;;11.87;71.41;99106.19;5018550;28;45385;-78
2023/04/18 00:28:25;;;;;;;;;16.25;14.50;;;;;11.85;71.54;99115.09;5017884;28;45411;-78
2023/04/18 00:30:51;;;;;;;;;17.25;13.50;;;;;11.83;71.59;99111.66;5017775;28;45309;-78
2023/04/18 00:33:16;;;;;;;;;13.00;9.50;;;;;11.82;71.95;99112.59;5018717;28;45682;-78
2023/04/18 00:35:42;;;;;;;;;10.00;10.00;;;;;11.81;71.85;99118.78;5018844;28;45491;-78
2023/04/18 00:38:07;;;;;;;;;11.50;11.00;;;;;11.78;72.51;99114.50;5019220;28;45389;-78
2023/04/18 00:40:32;;;;;;;;;13.75;9.00;;;;;11.75;71.92;99122.53;5018795;28;45493;-78
2023/04/18 00:42:58;;;;;;;;;10.75;10.00;;;;;11.72;72.19;99112.13;5033798;28;47242;-78
2023/04/18 00:45:24;;;;;;;;;16.25;14.00;;;;;11.70;72.13;99113.97;5017431;28;45433;-78
2023/04/18 00:47:49;;;;;;;;;14.00;14.00;;;;;11.69;71.99;99124.59;5015687;28;45529;-78
2023/04/18 00:50:15;;;;;;;;;14.25;12.25;;;;;11.66;72.15;99122.94;5015966;28;45484;-78
2023/04/18 00:52:42;;;;;;;;;16.00;14.50;;;;;11.63;72.24;99127.50;5017185;28;45578;-79
2023/04/18 00:55:09;;;;;;;;;14.50;14.50;;;;;11.58;72.85;99126.84;5014791;28;45344;-79
2023/04/18 00:57:35;;;;;;;;;11.25;11.25;;;;;11.56;72.72;99118.16;5015203;28;45410;-77
2023/04/18 01:00:07;;;;;;;;;13.75;12.00;;;;;11.56;72.64;99128.72;5030657;28;46243;-77
2023/04/18 01:02:33;;;;;;;;;14.00;11.75;;;;;11.53;73.07;99120.00;5030151;28;47054;-78
2023/04/18 01:04:58;;;;;;;;;14.00;14.00;;;;;11.49;73.46;99123.69;5015838;28;45297;-77
2023/04/18 01:07:25;;;;;;;;;14.75;13.25;;;;;11.44;73.55;99122.16;5015011;28;45662;-78
2023/04/18 01:09:52;;;;;;;;;14.75;14.25;;;;;11.41;73.37;99117.00;5015276;28;45476;-78
2023/04/18 01:12:17;;;;;;;;;17.00;13.00;;;;;11.36;73.80;99113.75;5013864;28;46307;-78
2023/04/18 01:14:42;;;;;;;;;15.75;14.00;;;;;11.33;73.69;99105.94;5014978;28;45386;-77
2023/04/18 01:17:09;;;;;;;;;13.25;13.25;;;;;11.30;74.27;99108.72;5014056;28;45407;-78
2023/04/18 01:19:36;;;;;;;;;13.25;12.25;;;;;11.29;73.93;99115.78;5015836;28;45520;-78
2023/04/18 01:22:02;;;;;;;;;14.25;12.75;;;;;11.26;73.77;99107.97;5014829;28;46229;-78
2023/04/18 01:24:28;;;;;;;;;13.25;11.00;;;;;11.26;73.85;99107.97;5015430;28;45559;-78
2023/04/18 01:26:54;;;;;;;;;13.75;13.75;;;;;11.27;74.21;99109.69;5012945;28;45475;-78
2023/04/18 01:29:19;;;;;;;;;12.75;12.75;;;;;11.28;74.13;99102.63;5008639;28;45359;-78
2023/04/18 01:31:45;;;;;;;;;14.25;12.00;;;;;11.27;74.08;99109.69;5013478;28;46064;-78
2023/04/18 01:34:10;;;;;;;;;11.25;10.00;;;;;11.27;74.27;99104.41;5015266;28;45324;-78
2023/04/18 01:36:37;;;;;;;;;10.50;10.00;;;;;11.25;74.56;99100.13;5010743;28;45462;-78
2023/04/18 01:39:03;;;;;;;;;13.75;13.75;;;;;11.24;74.58;99106.31;5007526;28;45431;-77
2023/04/18 01:41:31;;;;;;;;;16.50;15.25;;;;;11.22;74.63;99102.94;5026114;28;45554;-78
2023/04/18 01:43:56;;;;;;;;;13.00;11.00;;;;;11.22;74.55;99105.56;5012781;28;45411;-78
2023/04/18 01:46:22;;;;;;;;;13.50;11.50;;;;;11.21;74.91;99104.72;5011820;28;45465;-78
2023/04/18 01:48:47;;;;;;;;;13.25;13.25;;;;;11.20;74.92;99100.34;5001120;28;45293;-78
2023/04/18 01:51:13;;;;;;;;;16.00;13.50;;;;;11.19;74.90;99099.50;5025069;28;48285;-78
2023/04/18 01:53:38;;;;;;;;;14.00;14.00;;;;;11.22;74.96;99106.41;5005491;28;45384;-78
2023/04/18 01:56:04;;;;;;;;;15.00;13.25;;;;;11.22;75.05;99089.72;5014223;28;45376;-78
2023/04/18 01:58:29;;;;;;;;;12.00;11.75;;;;;11.23;75.14;99088.81;5014799;28;45369;-78
2023/04/18 02:00:57;;;;;;;;;11.25;11.25;;;;;11.24;75.31;99095.78;5027846;28;47291;-78
2023/04/18 02:03:23;;;;;;;;;14.25;12.25;;;;;11.24;75.00;99094.00;5011895;28;45389;-78
2023/04/18 02:05:49;;;;;;;;;14.25;12.25;;;;;11.22;74.93;99092.38;5011691;28;45468;-79
2023/04/18 02:08:15;;;;;;;;;14.50;12.50;;;;;11.19;74.85;99091.56;5014848;28;45483;-78
2023/04/18 02:10:40;;;;;;;;;15.50;14.25;;;;;11.16;75.40;99094.34;5013171;28;45653;-78
2023/04/18 02:13:06;;;;;;;;;20.75;18.00;;;;;11.12;75.42;99083.97;5011072;28;45510;-78
2023/04/18 02:15:32;;;;;;;;;12.50;10.00;;;;;11.11;75.27;99087.53;5013922;28;45419;-79
2023/04/18 02:18:01;;;;;;;;;16.25;15.75;;;;;11.09;75.52;99095.50;5014223;28;45545;-79
2023/04/18 02:20:30;;;;;;;;;16.25;15.00;;;;;11.07;75.70;99080.66;5012196;28;46229;-78
2023/04/18 02:22:59;;;;;;;;;14.00;12.50;;;;;11.07;75.62;99085.94;5010721;28;45492;-80
2023/04/18 02:25:26;;;;;;;;;13.25;13.25;;;;;11.05;75.87;99087.81;5011130;28;45435;-78
2023/04/18 02:27:56;;;;;;;;;15.00;13.75;;;;;11.02;76.07;99082.66;5002067;28;45588;-78
2023/04/18 02:30:22;;;;;;;;;13.75;12.75;;;;;10.99;76.08;99091.56;5010875;28;46450;-79
2023/04/18 02:32:50;;;;;;;;;15.50;13.75;;;;;10.97;76.22;99084.63;5004772;28;45414;-79
2023/04/18 02:35:16;;;;;;;;;16.50;14.75;;;;;10.95;76.40;99083.84;5014217;28;45433;-78
2023/04/18 02:37:42;;;;;;;;;14.00;14.00;;;;;10.90;76.79;99083.16;5013973;28;45542;-78
2023/04/18 02:40:08;;;;;;;;;17.00;16.33;;;;;10.85;76.45;99086.00;5012756;28;45521;-78
2023/04/18 02:42:33;;;;;;;;;15.25;15.00;;;;;10.85;76.49;99086.00;5013432;28;45533;-78
2023/04/18 02:44:58;;;;;;;;;13.00;12.75;;;;;10.86;76.09;99082.44;5013644;28;45692;-78
2023/04/18 02:47:24;;;;;;;;;13.50;13.00;;;;;10.85;76.27;99086.00;5013026;28;45371;-78
2023/04/18 02:49:49;;;;;;;;;16.25;14.00;;;;;10.85;75.67;99080.75;5013686;28;45544;-78
2023/04/18 02:52:15;;;;;;;;;2.00;2.00;;;;;10.88;76.16;99087.66;5013816;28;45518;-78
2023/04/18 02:54:40;;;;;;;;;15.75;13.25;;;;;10.90;75.81;99089.28;5014090;28;45477;-78
2023/04/18 02:57:06;;;;;;;;;17.75;13.50;;;;;10.92;76.57;99076.91;5009839;28;45558;-78
2023/04/18 02:59:31;;;;;;;;;17.00;15.25;;;;;10.94;76.05;99080.34;4998966;28;47234;-78
2023/04/18 03:01:57;;;;;;;;;18.25;15.25;;;;;10.97;76.27;99084.63;5006501;28;45474;-78
2023/04/18 03:04:22;;;;;;;;;15.00;14.00;;;;;10.97;76.59;99080.22;5006940;28;45467;-78
2023/04/18 03:06:48;;;;;;;;;17.50;16.25;;;;;11.00;76.27;99087.16;5012395;28;45482;-78
2023/04/18 03:09:14;;;;;;;;;18.25;14.00;;;;;11.02;75.96;99090.56;5010662;28;47153;-78
2023/04/18 03:11:39;;;;;;;;;15.50;11.25;;;;;11.04;76.26;99092.22;5013106;28;45422;-78
2023/04/18 03:14:05;;;;;;;;;14.50;12.00;;;;;11.07;76.71;99094.72;5003808;28;45351;-78
2023/04/18 03:16:31;;;;;;;;;18.00;15.25;;;;;11.07;76.82;99092.06;5026951;28;45680;-78
2023/04/18 03:18:56;;;;;;;;;15.50;14.00;;;;;11.08;77.04;99090.28;5014048;28;45721;-79
2023/04/18 03:21:22;;;;;;;;;16.50;14.00;;;;;11.10;77.04;99088.44;5027110;28;45502;-78
2023/04/18 03:23:47;;;;;;;;;15.67;15.00;;;;;11.10;77.75;99093.72;5014049;28;45531;-78
2023/04/18 03:26:13;;;;;;;;;17.00;14.00;;;;;11.08;78.17;99091.16;5028268;28;45365;-79
2023/04/18 03:28:39;;;;;;;;;14.75;14.75;;;;;11.07;78.64;99091.22;5014150;28;47226;-78
2023/04/18 03:31:04;;;;;;;;;14.50;13.75;;;;;11.05;78.86;99090.44;5012264;28;45325;-79
2023/04/18 03:33:30;;;;;;;;;15.25;13.50;;;;;11.06;78.63;99100.91;5026424;28;45427;-78
2023/04/18 03:35:55;;;;;;;;;12.00;10.50;;;;;11.07;78.42;99093.84;5012099;28;45650;-80
2023/04/18 03:38:21;;;;;;;;;15.75;14.00;;;;;11.08;78.48;99091.16;5003224;28;45561;-79
2023/04/18 03:40:46;;;;;;;;;15.25;13.25;;;;;11.10;78.09;99096.38;5015515;28;45832;-79
2023/04/18 03:43:12;;;;;;;;;13.50;12.25;;;;;11.11;78.06;99088.38;5014424;28;45510;-79
2023/04/18 03:45:37;;;;;;;;;12.00;10.75;;;;;11.14;76.36;99097.97;5014161;28;45524;-80
2023/04/18 03:48:03;;;;;;;;;9.25;9.00;;;;;11.16;75.32;99099.63;5013094;28;45506;-79
2023/04/18 03:50:28;;;;;;;;;8.25;7.50;;;;;11.17;74.75;99085.50;5014231;28;45381;-79
2023/04/18 03:52:54;;;;;;;;;8.25;8.00;;;;;11.21;74.48;99090.66;5028706;28;45555;-78
2023/04/18 03:55:20;;;;;;;;;10.75;8.75;;;;;11.22;74.28;99084.44;5013843;28;45442;-78
2023/04/18 03:57:46;;;;;;;;;8.25;8.00;;;;;11.26;74.47;99083.38;5012232;28;45541;-78
2023/04/18 04:00:13;;;;;;;;;10.75;10.75;;;;;11.25;73.64;99089.56;4997381;28;45362;-78
2023/04/18 04:02:38;;;;;;;;;8.25;7.75;;;;;11.28;73.42;99085.03;5023206;28;45514;-79
2023/04/18 04:05:04;;;;;;;;;10.50;10.50;;;;;11.29;73.52;99085.88;5012209;28;45669;-78
2023/04/18 04:07:31;;;;;;;;;8.75;8.75;;;;;11.29;73.44;99086.75;5012074;28;46546;-79
2023/04/18 04:10:00;;;;;;;;;10.00;9.50;;;;;11.30;73.41;99083.19;5027753;28;45463;-79
2023/04/18 04:12:26;;;;;;;;;8.50;8.00;;;;;11.30;73.15;99084.97;5024399;28;45426;-77
2023/04/18 04:14:51;;;;;;;;;11.75;10.25;;;;;11.30;73.15;99082.31;5026083;28;45417;-78
2023/04/18 04:17:16;;;;;;;;;9.00;9.00;;;;;11.27;73.04;99080.66;5006755;28;47304;-79
2023/04/18 04:19:42;;;;;;;;;11.00;8.50;;;;;11.26;72.77;99086.00;5013445;28;45629;-78
2023/04/18 04:22:07;;;;;;;;;10.00;6.75;;;;;11.26;72.63;99086.00;5015651;28;45663;-78
2023/04/18 04:24:34;;;;;;;;;9.00;8.00;;;;;11.25;72.66;99087.78;5007950;28;45741;-78
2023/04/18 04:27:00;;;;;;;;;9.00;9.00;;;;;11.25;72.99;99085.16;5012713;28;46112;-78
2023/04/18 04:29:27;;;;;;;;;9.00;7.75;;;;;11.25;72.84;99095.72;5014747;28;45498;-79
2023/04/18 04:31:53;;;;;;;;;6.25;6.25;;;;;11.25;72.59;99089.56;5014352;28;45432;-78
2023/04/18 04:34:19;;;;;;;;;9.75;9.00;;;;;11.23;72.28;99096.72;5013320;28;45400;-78
2023/04/18 04:36:45;;;;;;;;;6.50;6.50;;;;;11.20;71.87;99097.72;5013169;28;45507;-77
2023/04/18 04:39:11;;;;;;;;;7.00;7.00;;;;;11.22;71.97;99100.28;5015798;28;45439;-78
2023/04/18 04:41:38;;;;;;;;;9.00;8.00;;;;;11.21;72.05;99103.84;5006232;28;45414;-78
2023/04/18 04:44:03;;;;;;;;;7.25;7.00;;;;;11.20;72.07;99105.63;5015955;28;45482;-78
2023/04/18 04:46:29;;;;;;;;;8.00;6.75;;;;;11.19;71.76;99107.41;5016003;28;46559;-78
2023/04/18 04:48:55;;;;;;;;;9.00;7.50;;;;;11.17;71.97;99106.63;5015674;28;45551;-78
2023/04/18 04:51:21;;;;;;;;;9.00;8.00;;;;;11.19;71.71;99103.91;5026804;28;45487;-79
2023/04/18 04:53:46;;;;;;;;;10.75;7.00;;;;;11.21;71.70;99115.25;5012977;28;45497;-64
2023/04/18 04:56:12;;;;;;;;;8.25;7.50;;;;;11.26;71.58;99120.31;5015351;28;45446;-64
2023/04/18 04:58:37;;;;;;;;;9.00;8.00;;;;;11.32;71.42;99110.38;5004886;28;45407;-64
2023/04/18 05:01:03;;;;;;;;;6.25;4.50;;;;;11.37;71.08;99116.31;5013767;28;45620;-64
2023/04/18 05:03:28;;;;;;;;;9.00;8.00;;;;;11.43;71.03;99123.09;5015127;28;45523;-64
2023/04/18 05:05:53;;;;;;;;;8.00;8.00;;;;;11.46;70.90;99118.53;5030504;28;46099;-64
2023/04/18 05:08:19;;;;;;;;;9.00;8.00;;;;;11.49;70.84;99121.06;5011042;28;45550;-64
2023/04/18 05:10:44;;;;;;;;;13.00;11.50;;;;;11.50;70.79;99124.53;5013915;28;45947;-64
2023/04/18 05:13:10;;;;;;;;;14.00;12.00;;;;;11.52;70.76;99122.72;5009129;28;45408;-64
2023/04/18 05:15:36;;;;;;;;;8.25;8.25;;;;;11.55;70.55;99125.22;5015242;28;46382;-64
2023/04/18 05:18:01;;;;;;;;;10.00;9.00;;;;;11.57;70.46;99125.97;5014507;28;45420;-65
2023/04/18 05:20:27;;;;;;;;;10.25;10.25;;;;;11.59;70.66;99128.56;5015705;28;45393;-64
2023/04/18 05:22:52;;;;;;;;;10.75;9.00;;;;;11.61;70.25;99127.56;5011508;28;45474;-64
2023/04/18 05:25:18;;;;;;;;;6.50;6.50;;;;;11.64;70.04;99126.56;5013120;28;45441;-64
2023/04/18 05:27:44;;;;;;;;;5.00;5.00;;;;;11.65;69.95;99130.94;5013325;28;45577;-64
2023/04/18 05:30:10;;;;;;;;;15.00;10.00;;;;;11.66;69.88;99138.78;5013291;28;45433;-64
2023/04/18 05:32:37;;;;;;;;;9.00;9.00;;;;;11.68;69.70;99133.44;5012753;28;45456;-64
2023/04/18 05:35:04;;;;;;;;;8.50;8.00;;;;;11.69;69.56;99138.66;5026798;28;45398;-64
2023/04/18 05:37:29;;;;;;;;;10.00;10.00;;;;;11.70;69.38;99142.16;5014273;28;45574;-64
2023/04/18 05:39:55;;;;;;;;;7.00;7.00;;;;;11.71;69.35;99138.59;5014951;28;45376;-64
2023/04/18 05:42:20;;;;;;;;;8.50;7.50;;;;;11.74;69.33;99139.28;5014588;28;45496;-64
2023/04/18 05:44:45;;;;;;;;;9.75;8.75;;;;;11.77;69.23;99138.34;5014715;28;46149;-64
2023/04/18 05:47:11;;;;;;;;;8.00;8.00;;;;;11.80;68.95;99136.41;5014484;28;45468;-64
2023/04/18 05:49:36;;;;;;;;;10.75;8.50;;;;;11.82;69.08;99134.56;5013339;28;45436;-64
2023/04/18 05:52:02;;;;;;;;;10.25;9.25;;;;;11.86;68.80;99141.44;5013687;28;45377;-65
2023/04/18 05:54:27;;;;;;;;;16.00;12.75;;;;;11.87;68.96;99139.66;5009010;28;46120;-65
2023/04/18 05:56:53;;;;;;;;;10.75;10.00;;;;;11.88;68.89;99142.22;5011480;28;45448;-65
2023/04/18 05:59:19;;;;;;;;;12.75;10.00;;;;;11.90;68.75;99142.13;5011736;28;45533;-65
2023/04/18 06:01:45;;;;;;;;;11.00;8.00;;;;;11.95;68.33;99136.66;5004266;28;45545;-65
2023/04/18 06:04:11;;;;;;;;;10.00;10.00;;;;;11.97;68.33;99138.31;5013582;28;47075;-65
2023/04/18 06:06:36;;;;;;;;;11.75;11.00;;;;;12.00;68.67;99142.59;5011991;28;45546;-65
2023/04/18 06:09:02;;;;;;;;;11.00;9.25;;;;;12.00;68.28;99140.81;5027147;28;45509;-65
2023/04/18 06:11:27;;;;;;;;;12.25;8.00;;;;;12.03;67.85;99142.47;5028251;28;45917;-65
2023/04/18 06:13:54;;;;;;;;;7.50;6.25;;;;;12.02;67.83;99141.59;5004424;28;45512;-65
2023/04/18 06:16:20;;;;;;;;;12.00;10.25;;;;;12.07;67.88;99146.66;5011944;28;45331;-65
2023/04/18 06:18:46;;;;;;;;;8.50;8.50;;;;;12.09;67.51;99148.31;5010691;28;45392;-65
2023/04/18 06:21:12;;;;;;;;;10.50;8.00;;;;;12.12;67.69;99140.25;5011029;28;45364;-64
2023/04/18 06:23:37;;;;;;;;;9.00;7.00;;;;;12.16;67.49;99141.81;5028337;28;45484;-64
2023/04/18 06:26:03;;;;;;;;;10.00;10.00;;;;;12.21;67.59;99153.06;5012182;28;45489;-64
2023/04/18 06:28:28;;;;;;;;;9.00;9.00;;;;;12.24;67.47;99150.25;5012328;28;45479;-63
2023/04/18 06:30:53;;;;;;;;;12.00;10.00;;;;;12.26;67.47;99151.97;5012474;28;45375;-64
2023/04/18 06:33:19;;;;;;;;;11.50;11.50;;;;;12.26;67.19;99152.81;5013400;28;46460;-63
2023/04/18 06:35:44;;;;;;;;;11.50;10.00;;;;;12.31;67.03;99157.91;5013342;28;45504;-64
2023/04/18 06:38:10;;;;;;;;;12.50;10.50;;;;;12.31;66.98;99158.75;5012996;28;45532;-63
2023/04/18 06:40:35;;;;;;;;;11.50;11.50;;;;;12.32;66.70;99156.97;5013753;28;45450;-65
2023/04/18 06:43:01;;;;;;;;;8.25;7.50;;;;;12.33;66.78;99154.25;5007078;28;45470;-63
2023/04/18 06:45:26;;;;;;;;;10.50;9.00;;;;;12.33;66.56;99156.91;5012727;28;45535;-62
2023/04/18 06:47:52;;;;;;;;;11.00;10.50;;;;;12.36;66.16;99158.56;5023174;28;45459;-64
2023/04/18 06:50:18;;;;;;;;;16.25;14.00;;;;;12.38;66.70;99159.34;5014081;28;45430;-64
2023/04/18 06:52:44;;;;;;;;;14.50;11.00;;;;;12.42;66.40;99156.44;5024828;28;47041;-64
2023/04/18 06:55:11;;;;;;;;;11.00;9.00;;;;;12.47;66.29;99156.25;5013826;28;45425;-65
2023/04/18 06:57:37;;;;;;;;;10.25;9.25;;;;;12.50;66.25;99156.97;5009152;28;45306;-64
2023/04/18 07:00:04;;;;;;;;;15.75;10.50;;;;;12.54;66.10;99152.41;5006171;28;45464;-65
2023/04/18 07:02:30;;;;;;;;;10.00;10.00;;;;;12.54;65.98;99155.91;5008164;28;46219;-65
2023/04/18 07:04:55;;;;;;;;;12.50;10.00;;;;;12.55;65.64;99162.91;5007059;28;45437;-65
2023/04/18 07:07:21;;;;;;;;;13.75;10.75;;;;;12.58;65.56;99160.09;5010812;28;45491;-63
2023/04/18 07:09:48;;;;;;;;;15.00;13.75;;;;;12.59;65.77;99156.50;5019666;28;45915;-63
2023/04/18 07:12:14;;;;;;;;;12.25;9.50;;;;;12.64;65.79;99160.72;5008452;28;48129;-63
2023/04/18 07:14:39;;;;;;;;;11.00;11.00;;;;;12.65;65.83;99163.31;5023950;28;45515;-63
2023/04/18 07:17:05;;;;;;;;;14.00;14.00;;;;;12.68;65.67;99163.16;5012798;28;45517;-63
2023/04/18 07:19:30;;;;;;;;;11.25;9.75;;;;;12.73;65.71;99160.31;5010276;28;45310;-63
2023/04/18 07:21:55;;;;;;;;;12.25;11.25;;;;;12.77;65.62;99160.06;5012845;28;45447;-63
2023/04/18 07:24:22;;;;;;;;;14.00;13.00;;;;;12.82;65.63;99166.00;5011316;28;45450;-64
2023/04/18 07:26:48;;;;;;;;;14.50;12.25;;;;;12.88;65.57;99165.72;5012841;28;45387;-64
2023/04/18 07:29:14;;;;;;;;;13.00;11.00;;;;;12.98;65.23;99163.47;5012190;28;45521;-63
2023/04/18 07:31:39;;;;;;;;;15.50;15.50;;;;;13.08;65.30;99156.78;5012094;28;47213;-65
2023/04/18 07:34:05;;;;;;;;;15.50;14.00;;;;;13.18;65.06;99158.06;5012852;28;45424;-62
2023/04/18 07:36:30;;;;;;;;;13.50;11.75;;;;;13.29;65.20;99160.19;5013079;28;45400;-64
2023/04/18 07:38:56;;;;;;;;;11.00;11.00;;;;;13.38;64.74;99159.72;5012603;28;45528;-64
2023/04/18 07:41:21;;;;;;;;;12.00;11.00;;;;;13.44;64.67;99156.75;5012782;28;45765;-63
2023/04/18 07:43:47;;;;;;;;;13.50;12.50;;;;;13.51;64.40;99159.94;5006647;28;45515;-65
2023/04/18 07:46:12;;;;;;;;;12.00;11.25;;;;;13.60;63.99;99148.88;5012352;28;45423;-63
2023/04/18 07:48:38;;;;;;;;;10.50;10.00;;;;;13.67;63.90;99144.97;5008041;28;45341;-63
2023/04/18 07:51:03;;;;;;;;;12.50;10.25;;;;;13.75;63.73;99149.84;5010718;28;48256;-64
2023/04/18 07:53:29;;;;;;;;;15.00;14.00;;;;;13.84;63.54;99152.03;5024421;28;45487;-64
2023/04/18 07:55:54;;;;;;;;;13.75;13.25;;;;;13.94;63.27;99147.94;5014844;28;45309;-63
2023/04/18 07:58:20;;;;;;;;;12.00;12.00;;;;;14.04;63.02;99145.69;5012700;28;45486;-63
2023/04/18 08:00:45;;;;;;;;;11.25;11.25;;;;;14.14;63.24;99144.22;5006321;28;46189;-65
2023/04/18 08:03:11;;;;;;;;;10.00;10.00;;;;;14.25;62.73;99145.34;5023711;28;45806;-63
2023/04/18 08:05:40;;;;;;;;;12.25;11.75;;;;;14.37;62.45;99153.59;5012952;28;45488;-63
2023/04/18 08:08:07;;;;;;;;;12.00;11.25;;;;;14.49;61.98;99135.22;5007653;28;45480;-63
2023/04/18 08:10:33;;;;;;;;;11.50;9.25;;;;;14.62;61.84;99140.69;5013826;28;47373;-63
2023/04/18 08:12:59;;;;;;;;;11.50;9.50;;;;;14.68;61.49;99140.38;5012832;28;45330;-63
2023/04/18 08:15:26;;;;;;;;;7.50;7.50;;;;;14.78;61.23;99144.19;5008030;28;45399;-64
2023/04/18 08:17:52;;;;;;;;;11.75;11.75;;;;;14.90;61.22;99142.66;5027926;28;45609;-63
2023/04/18 08:20:18;;;;;;;;;12.75;11.75;;;;;14.99;60.32;99155.41;5013717;28;46613;-63
2023/04/18 08:22:43;;;;;;;;;12.25;11.25;;;;;15.04;60.13;99145.38;5015091;28;45400;-63
2023/04/18 08:25:09;;;;;;;;;14.75;12.50;;;;;15.11;59.89;99145.84;5014324;28;45476;-63
2023/04/18 08:27:35;;;;;;;;;11.00;10.00;;;;;15.20;59.69;99145.34;5015308;28;45371;-63
2023/04/18 08:30:02;;;;;;;;;11.50;10.00;;;;;15.30;59.45;99150.00;5014014;28;46563;-63
2023/04/18 08:32:28;;;;;;;;;11.25;10.25;;;;;15.41;59.27;99144.09;5030663;28;45444;-65
2023/04/18 08:34:54;;;;;;;;;11.25;9.50;;;;;15.52;58.82;99149.59;5016949;28;45421;-63
2023/04/18 08:37:20;;;;;;;;;9.75;8.75;;;;;15.63;58.16;99141.00;5011629;28;45452;-64
2023/04/18 08:39:45;;;;;;;;;11.00;11.00;;;;;15.73;58.00;99147.50;5013445;28;46297;-64
2023/04/18 08:42:15;;;;;;;;;11.50;11.50;;;;;15.81;57.56;99152.31;5011543;28;45556;-64
2023/04/18 08:44:45;;;;;;;;;13.25;10.00;;;;;15.89;57.58;99137.63;5013251;28;45486;-64
2023/04/18 08:47:11;;;;;;;;;15.50;13.00;;;;;16.01;57.31;99131.53;5003684;28;45321;-62
2023/04/18 08:49:37;;;;;;;;;11.00;11.00;;;;;16.10;57.32;99130.09;5013163;28;45640;-63
2023/04/18 08:52:15;;;;;;;;;13.25;11.25;;;;;16.16;57.11;99135.06;5010136;28;45460;-64
2023/04/18 08:54:42;;;;;;;;;15.25;14.25;;;;;16.22;56.71;99134.69;5006093;28;45617;-63
2023/04/18 08:57:11;;;;;;;;;12.00;11.75;;;;;16.19;56.32;99129.53;5010304;28;45568;-63
2023/04/18 08:59:37;;;;;;;;;10.00;10.00;;;;;16.18;56.80;99132.28;5006425;28;45432;-65
2023/04/18 09:02:05;;;;;;;;;13.00;12.20;;;;;16.16;56.87;99127.06;5012427;28;45514;-63
2023/04/18 09:04:36;;;;;;;;;10.00;10.00;;;;;16.15;56.19;99124.50;5008859;28;45450;-63
2023/04/18 09:07:04;;;;;;;;;12.00;10.75;;;;;16.09;56.21;99120.41;5012999;28;45524;-65
2023/04/18 09:09:47;;;;;;;;;10.50;9.75;;;;;16.07;56.54;99119.69;5009311;28;45548;-63
2023/04/18 09:12:18;;;;;;;;;11.60;11.60;;;;;16.04;56.80;99119.88;5014022;28;45589;-65
2023/04/18 09:14:49;;;;;;;;;11.25;9.50;;;;;15.98;57.20;99109.59;5025424;28;45372;-65
2023/04/18 09:17:30;;;;;;;;;13.25;12.25;;;;;15.91;57.36;99119.78;5013567;28;45469;-65
2023/04/18 09:19:58;;;;;;;;;14.00;12.50;;;;;15.87;56.60;99117.41;5012092;28;46228;-65
2023/04/18 09:22:23;;;;;;;;;14.25;12.75;;;;;15.82;56.76;99114.16;5014040;28;45645;-62
2023/04/18 09:24:56;;;;;;;;;11.75;11.00;;;;;15.80;56.83;99108.94;5013062;28;45478;-62
2023/04/18 09:27:22;;;;;;;;;12.75;9.75;;;;;15.80;56.77;99116.06;5014333;28;45370;-63
2023/04/18 09:29:53;;;;;;;;;11.00;10.50;;;;;15.80;56.39;99114.25;5013719;28;46071;-63
2023/04/18 09:32:27;;;;;;;;;11.25;9.50;;;;;15.80;55.97;99111.59;5014476;28;45408;-63
2023/04/18 09:35:02;;;;;;;;;10.00;7.75;;;;;15.78;56.19;99105.50;5014965;28;45420;-64
2023/04/18 09:37:28;;;;;;;;;9.25;9.25;;;;;15.78;56.78;99105.50;5013165;28;45557;-64
2023/04/18 09:39:54;;;;;;;;;12.00;11.00;;;;;15.76;56.94;99101.22;5015394;28;46224;-64
2023/04/18 09:42:21;;;;;;;;;11.20;10.20;;;;;15.74;56.51;99103.16;5009829;28;45373;-64
2023/04/18 09:45:04;;;;;;;;;13.25;13.25;;;;;15.74;56.82;99108.47;5013205;28;45458;-64
2023/04/18 09:47:33;;;;;;;;;14.00;12.00;;;;;15.75;57.07;99104.88;5004349;28;45581;-63
2023/04/18 09:50:08;;;;;;;;;14.00;14.00;;;;;15.75;56.84;99100.41;5014588;28;45653;-63
2023/04/18 09:52:37;;;;;;;;;11.60;10.80;;;;;15.77;56.81;99101.16;5009855;28;45467;-63
2023/04/18 09:55:05;;;;;;;;;16.25;14.75;;;;;15.79;57.06;99093.06;5014586;28;45451;-63
2023/04/18 09:57:32;;;;;;;;;14.75;13.75;;;;;15.81;56.97;99091.19;5011052;28;45445;-63
2023/04/18 10:00:09;;;;;;;;;11.75;11.00;;;;;15.85;56.80;99084.72;5006765;28;46537;-64
2023/04/18 10:02:47;;;;;;;;;15.00;13.25;;;;;15.90;56.60;99077.34;5014195;28;45588;-64
2023/04/18 10:05:13;;;;;;;;;14.50;14.25;;;;;15.90;56.69;99086.16;5014332;28;45540;-64
2023/04/18 10:07:40;;;;;;;;;14.50;13.50;;;;;15.92;56.06;99078.91;5011745;28;45543;-64
2023/04/18 10:10:06;;;;;;;;;12.00;12.00;;;;;15.96;55.53;99075.13;5026183;28;47721;-64
2023/04/18 10:12:32;;;;;;;;;13.50;11.50;;;;;16.03;55.82;99075.59;5013482;28;45437;-64
2023/04/18 10:14:59;;;;;;;;;12.00;10.75;;;;;16.08;54.97;99073.53;5009336;28;45507;-64
2023/04/18 10:17:27;;;;;;;;;11.75;11.75;;;;;16.13;55.71;99060.75;5012586;28;45538;-64
2023/04/18 10:20:11;;;;;;;;;17.00;13.50;;;;;16.21;55.92;99069.13;5025963;28;46313;-65
2023/04/18 10:22:37;;;;;;;;;12.60;11.40;;;;;16.26;55.12;99067.00;5013145;28;45538;-65
2023/04/18 10:25:03;;;;;;;;;10.25;9.75;;;;;16.31;55.49;99062.25;5012915;28;45414;-65
2023/04/18 10:27:47;;;;;;;;;10.50;9.50;;;;;16.33;54.88;99054.16;5013072;28;45458;-65
2023/04/18 10:30:13;;;;;;;;;11.75;11.75;;;;;16.37;54.53;99056.53;5012636;28;46252;-64
2023/04/18 10:32:39;;;;;;;;;13.75;13.75;;;;;16.44;54.18;99050.81;5012775;28;45449;-65
2023/04/18 10:35:05;;;;;;;;;13.50;11.75;;;;;16.49;55.22;99046.03;5013811;28;45376;-65
2023/04/18 10:37:32;;;;;;;;;10.00;9.25;;;;;16.49;55.14;99048.72;5007422;28;45344;-65
2023/04/18 10:39:59;;;;;;;;;8.25;5.75;;;;;16.50;54.07;99042.44;5012867;28;46509;-65
2023/04/18 10:42:51;;;;;;;;;8.00;7.00;;;;;16.55;54.40;99035.88;5002878;28;45527;-65
2023/04/18 10:45:19;;;;;;;;;11.75;11.50;;;;;16.61;54.39;99032.78;5008295;28;45626;-65
2023/04/18 10:47:45;;;;;;;;;9.00;7.75;;;;;16.70;54.03;99032.22;5008812;28;45491;-65
2023/04/18 10:50:11;;;;;;;;;11.25;10.00;;;;;16.79;53.78;99027.22;5005288;28;45535;-65
2023/04/18 10:52:37;;;;;;;;;8.75;7.50;;;;;16.78;53.42;99020.19;5013876;28;45444;-64
2023/04/18 10:55:07;;;;;;;;;10.25;10.25;;;;;16.80;53.73;99013.81;5013658;28;45493;-65
2023/04/18 10:57:38;;;;;;;;;7.25;7.25;;;;;16.88;52.83;99014.16;5014164;28;45460;-65
2023/04/18 11:00:08;;;;;;;;;8.20;8.20;;;;;16.98;53.03;99015.22;5013501;28;45416;-64
2023/04/18 11:02:34;;;;;;;;;8.00;8.00;;;;;17.03;52.62;99009.59;5013753;28;45393;-64
2023/04/18 11:05:05;;;;;;;;;9.75;8.25;;;;;17.09;52.61;99001.19;5014148;28;45409;-65
2023/04/18 11:07:38;;;;;;;;;7.50;7.50;;;;;17.14;52.79;98999.06;5013826;28;45432;-65
2023/04/18 11:10:08;;;;;;;;;13.00;10.00;;;;;17.22;52.52;98991.41;5013330;28;45576;-65
2023/04/18 11:12:39;;;;;;;;;12.40;9.80;;;;;17.28;52.53;98987.44;5013676;28;45535;-65
2023/04/18 11:15:10;;;;;;;;;5.75;5.75;;;;;17.38;52.25;98985.84;5013460;28;45405;-65
2023/04/18 11:17:38;;;;;;;;;8.50;7.00;;;;;17.42;51.07;98982.88;5013612;28;45527;-65
2023/04/18 11:20:13;;;;;;;;;8.50;7.00;;;;;17.48;51.78;98978.91;5012890;28;45808;-65